Time;durP1;ratioP1;P1;durP2;ratioP2;P2;SDS_P1;SDS_P2;PMS_P1;PMS_P2;Temp;Humidity;BMP_temperature;BMP_pressure;BME280_temperature;BME280_humidity;BME280_pressure;Samples;Min_cycle;Max_cycle;Signal;HPM_P1;HPM_P2
2021/04/24 00:01:45;;;;;;;14.40;8.13;;;2.40;99.90;;;;;;4769743;30;20194;-81
2021/04/24 00:04:11;;;;;;;19.27;9.00;;;2.30;99.90;;;;;;4768771;30;20561;-81
2021/04/24 00:06:37;;;;;;;19.80;9.83;;;2.40;99.90;;;;;;4769411;30;20198;-81
2021/04/24 00:09:05;;;;;;;20.83;10.13;;;2.40;99.90;;;;;;4768956;29;20208;-81
2021/04/24 00:11:31;;;;;;;18.17;9.80;;;2.40;99.90;;;;;;4769278;30;20197;-81
2021/04/24 00:13:56;;;;;;;19.17;8.67;;;2.40;99.90;;;;;;4770800;30;20193;-81
2021/04/24 00:16:22;;;;;;;20.57;11.67;;;2.50;99.90;;;;;;4770151;30;20186;-81
2021/04/24 00:18:48;;;;;;;16.50;9.57;;;2.50;99.90;;;;;;4770271;30;20192;-81
2021/04/24 00:21:15;;;;;;;15.63;8.87;;;2.60;99.90;;;;;;4769237;30;20189;-81
2021/04/24 00:23:41;;;;;;;18.27;10.30;;;2.60;99.90;;;;;;4769042;30;20184;-81
2021/04/24 00:26:06;;;;;;;16.43;9.60;;;2.70;99.90;;;;;;4769928;30;20272;-81
2021/04/24 00:28:32;;;;;;;17.37;9.77;;;2.70;99.90;;;;;;4769973;30;20193;-81
2021/04/24 00:30:58;;;;;;;17.63;10.00;;;2.70;99.90;;;;;;4770418;30;20194;-81
2021/04/24 00:33:24;;;;;;;19.03;10.27;;;2.70;99.90;;;;;;4768703;30;20276;-81
2021/04/24 00:35:51;;;;;;;25.17;9.43;;;2.70;99.90;;;;;;4770349;30;20202;-81
2021/04/24 00:38:17;;;;;;;15.90;8.73;;;2.70;99.90;;;;;;4768781;30;20199;-81
2021/04/24 00:40:42;;;;;;;16.03;9.63;;;2.70;99.90;;;;;;4770327;30;20255;-81
2021/04/24 00:43:08;;;;;;;15.10;10.10;;;2.70;99.90;;;;;;4770021;30;20558;-81
2021/04/24 00:45:34;;;;;;;18.43;9.97;;;2.60;99.90;;;;;;4770180;30;20291;-80
2021/04/24 00:48:01;;;;;;;19.57;9.90;;;2.60;99.90;;;;;;4768510;30;20204;-80
2021/04/24 00:50:30;;;;;;;16.83;9.67;;;2.60;99.90;;;;;;4783221;29;20204;-80
2021/04/24 00:52:57;;;;;;;14.97;9.07;;;2.60;99.90;;;;;;4770510;30;20192;-80
2021/04/24 00:55:22;;;;;;;16.67;10.13;;;2.60;99.90;;;;;;4769753;30;20270;-81
2021/04/24 00:57:48;;;;;;;14.50;8.70;;;2.60;99.90;;;;;;4770191;30;20706;-80
2021/04/24 01:00:16;;;;;;;18.17;9.97;;;2.50;99.90;;;;;;4769869;30;20244;-81
2021/04/24 01:02:42;;;;;;;18.10;10.00;;;2.50;99.90;;;;;;4770522;30;20190;-81
2021/04/24 01:05:14;;;;;;;19.63;10.20;;;2.50;99.90;;;;;;4770181;30;20271;-81
2021/04/24 01:07:44;;;;;;;16.60;9.40;;;2.60;99.90;;;;;;4783372;29;20208;-81
2021/04/24 01:10:11;;;;;;;16.83;8.77;;;2.50;99.90;;;;;;4768969;30;20250;-81
2021/04/24 01:12:37;;;;;;;17.27;8.57;;;2.50;99.90;;;;;;4771767;30;20192;-80
2021/04/24 01:15:05;;;;;;;12.90;9.00;;;2.50;99.90;;;;;;4772686;30;20195;-81
2021/04/24 01:17:31;;;;;;;15.90;8.67;;;2.50;99.90;;;;;;4772638;30;20190;-81
2021/04/24 01:19:57;;;;;;;15.83;8.73;;;2.50;99.90;;;;;;4772523;30;20265;-80
2021/04/24 01:22:23;;;;;;;14.93;8.87;;;2.50;99.90;;;;;;4773001;30;20214;-80
2021/04/24 01:24:49;;;;;;;14.87;8.70;;;2.40;99.90;;;;;;4773348;30;20736;-80
2021/04/24 01:27:15;;;;;;;15.70;8.50;;;2.40;99.90;;;;;;4772969;30;20186;-80
2021/04/24 01:29:41;;;;;;;19.17;9.20;;;2.40;99.90;;;;;;4771972;30;20197;-80
2021/04/24 01:32:08;;;;;;;18.87;9.43;;;2.30;99.90;;;;;;4772757;30;20192;-80
2021/04/24 01:34:34;;;;;;;18.17;9.60;;;2.30;99.90;;;;;;4773419;30;20231;-80
2021/04/24 01:37:01;;;;;;;17.93;9.70;;;2.20;99.90;;;;;;4772787;30;20186;-81
2021/04/24 01:39:27;;;;;;;17.57;9.50;;;2.10;99.90;;;;;;4772377;30;20598;-80
2021/04/24 01:41:53;;;;;;;17.50;9.40;;;2.00;99.90;;;;;;4773124;30;20184;-80
2021/04/24 01:44:19;;;;;;;18.60;10.23;;;2.00;99.90;;;;;;4771117;30;20314;-80
2021/04/24 01:46:45;;;;;;;17.57;10.20;;;1.90;99.90;;;;;;4772875;30;20190;-80
2021/04/24 01:49:12;;;;;;;18.93;10.10;;;1.80;99.90;;;;;;4771311;30;20309;-83
2021/04/24 01:51:38;;;;;;;20.77;11.10;;;1.80;99.90;;;;;;4772616;30;20207;-80
2021/04/24 01:54:05;;;;;;;18.83;11.27;;;1.70;99.90;;;;;;4772331;30;20249;-79
2021/04/24 01:56:51;;;;;;;19.50;11.10;;;1.70;99.90;;;;;;4770987;30;20276;-80
2021/04/24 01:59:21;;;;;;;24.47;10.90;;;1.60;99.90;;;;;;4771096;30;20189;-80
2021/04/24 02:01:49;;;;;;;25.13;12.10;;;1.60;99.90;;;;;;4772581;30;20190;-79
2021/04/24 02:04:19;;;;;;;21.67;11.53;;;1.50;99.90;;;;;;4772025;30;20216;-80
2021/04/24 02:06:46;;;;;;;24.80;11.40;;;1.50;99.90;;;;;;4771132;30;20186;-79
2021/04/24 02:09:14;;;;;;;18.10;10.13;;;1.50;99.90;;;;;;4772634;30;20247;-79
2021/04/24 02:12:00;;;;;;;22.97;11.17;;;1.50;99.90;;;;;;4772298;30;20184;-78
2021/04/24 02:14:25;;;;;;;24.60;11.90;;;1.40;99.90;;;;;;4770269;30;20664;-78
2021/04/24 02:16:51;;;;;;;23.00;12.67;;;1.40;99.90;;;;;;4772036;30;20253;-80
2021/04/24 02:19:17;;;;;;;23.13;11.63;;;1.40;99.90;;;;;;4756084;30;20195;-80
2021/04/24 02:21:42;;;;;;;19.77;11.07;;;1.30;99.90;;;;;;4770798;30;20194;-79
2021/04/24 02:24:08;;;;;;;21.77;10.93;;;1.30;99.90;;;;;;4771161;30;20222;-79
2021/04/24 02:26:35;;;;;;;23.97;11.43;;;1.30;99.90;;;;;;4770350;30;20200;-80
2021/04/24 02:29:01;;;;;;;23.43;12.63;;;1.20;99.90;;;;;;4772032;30;20208;-80
2021/04/24 02:31:27;;;;;;;22.13;12.13;;;1.20;99.90;;;;;;4770718;30;20634;-80
2021/04/24 02:33:54;;;;;;;24.37;11.73;;;1.20;99.90;;;;;;4771712;30;20262;-79
2021/04/24 02:36:19;;;;;;;22.37;11.23;;;1.20;99.90;;;;;;4771928;30;20191;-80
2021/04/24 02:38:54;;;;;;;26.90;11.37;;;1.20;99.90;;;;;;4770681;30;20189;-79
2021/04/24 02:41:20;;;;;;;27.70;12.40;;;1.10;99.90;;;;;;4771184;30;20199;-80
2021/04/24 02:43:46;;;;;;;24.90;11.80;;;1.10;99.90;;;;;;4755688;30;20195;-79
2021/04/24 02:46:13;;;;;;;22.87;12.33;;;1.10;99.90;;;;;;4785264;30;20195;-79
2021/04/24 02:48:39;;;;;;;25.53;11.23;;;1.10;99.90;;;;;;4771393;30;20186;-79
2021/04/24 02:51:05;;;;;;;23.60;11.63;;;1.10;99.90;;;;;;4770652;30;20245;-79
2021/04/24 02:53:31;;;;;;;22.53;11.27;;;1.10;99.90;;;;;;4771208;30;20181;-79
2021/04/24 02:55:57;;;;;;;22.50;11.37;;;1.10;99.90;;;;;;4785270;30;20194;-79
2021/04/24 02:58:22;;;;;;;29.40;11.70;;;1.10;99.90;;;;;;4754977;30;20553;-80
2021/04/24 03:00:48;;;;;;;25.83;12.53;;;1.10;99.90;;;;;;4770479;30;20192;-80
2021/04/24 03:03:15;;;;;;;20.10;11.27;;;1.00;99.90;;;;;;4771199;30;20668;-80
2021/04/24 03:05:42;;;;;;;23.97;12.30;;;1.00;99.90;;;;;;4769692;29;20314;-80
2021/04/24 03:08:09;;;;;;;24.90;11.67;;;1.10;99.90;;;;;;4770114;30;20219;-79
2021/04/24 03:10:38;;;;;;;20.47;10.97;;;1.10;99.90;;;;;;4770832;30;20248;-79
2021/04/24 03:13:05;;;;;;;23.83;11.20;;;1.00;99.90;;;;;;4784836;29;20253;-80
2021/04/24 03:15:31;;;;;;;23.70;11.13;;;1.00;99.90;;;;;;4784545;30;20201;-79
2021/04/24 03:17:57;;;;;;;22.43;10.87;;;1.00;99.90;;;;;;4771160;30;20643;-79
2021/04/24 03:20:23;;;;;;;19.27;10.50;;;1.00;99.90;;;;;;4770920;30;20194;-81
2021/04/24 03:22:49;;;;;;;26.07;11.17;;;1.00;99.90;;;;;;4770892;30;20193;-80
2021/04/24 03:25:16;;;;;;;21.03;10.73;;;1.00;99.90;;;;;;4770897;30;20217;-80
2021/04/24 03:27:42;;;;;;;20.13;10.43;;;1.00;99.90;;;;;;4770828;30;20197;-80
2021/04/24 03:30:11;;;;;;;20.13;10.57;;;1.00;99.90;;;;;;4771187;30;20232;-80
2021/04/24 03:32:36;;;;;;;17.67;9.43;;;1.00;99.90;;;;;;4770814;30;20184;-80
2021/04/24 03:35:04;;;;;;;24.43;11.00;;;1.00;99.90;;;;;;4754901;30;20194;-80
2021/04/24 03:37:30;;;;;;;20.87;10.63;;;1.00;99.90;;;;;;4769238;30;20536;-80
2021/04/24 03:39:56;;;;;;;21.30;11.13;;;1.10;99.90;;;;;;4767751;30;20189;-79
2021/04/24 03:42:21;;;;;;;21.60;11.57;;;1.10;99.90;;;;;;4756779;30;20209;-80
2021/04/24 03:44:47;;;;;;;30.10;15.30;;;1.10;99.90;;;;;;4751317;30;20309;-85
2021/04/24 03:47:13;;;;;;;25.97;10.90;;;1.20;99.90;;;;;;4757393;30;20206;-80
2021/04/24 03:49:38;;;;;;;24.33;15.27;;;1.10;99.90;;;;;;4769002;29;20190;-83
2021/04/24 03:52:05;;;;;;;26.57;17.27;;;1.30;99.90;;;;;;4753608;30;20198;-80
2021/04/24 03:54:31;;;;;;;26.37;14.60;;;1.30;99.90;;;;;;4756484;30;20264;-80
2021/04/24 03:56:58;;;;;;;23.80;11.70;;;1.30;99.90;;;;;;4758670;30;20193;-79
2021/04/24 03:59:24;;;;;;;22.77;11.60;;;1.30;99.90;;;;;;4761520;30;20275;-80
2021/04/24 04:01:50;;;;;;;20.87;12.70;;;1.40;99.90;;;;;;4764574;30;20217;-79
2021/04/24 04:04:16;;;;;;;20.30;11.53;;;1.60;99.90;;;;;;4765567;30;21872;-79
2021/04/24 04:06:42;;;;;;;22.73;12.70;;;1.50;99.90;;;;;;4766925;30;20296;-79
2021/04/24 04:09:07;;;;;;;18.30;10.83;;;1.60;99.90;;;;;;4768201;30;20194;-81
2021/04/24 04:11:33;;;;;;;21.00;10.30;;;1.70;99.90;;;;;;4763762;30;20201;-80
2021/04/24 04:13:59;;;;;;;19.77;9.97;;;1.80;99.90;;;;;;4768435;30;20198;-79
2021/04/24 04:16:24;;;;;;;23.20;10.83;;;1.80;99.90;;;;;;4754034;29;20231;-80
2021/04/24 04:18:52;;;;;;;24.70;10.67;;;1.80;99.90;;;;;;4781916;29;20225;-80
2021/04/24 04:21:18;;;;;;;22.20;10.67;;;1.90;99.90;;;;;;4767175;30;20201;-80
2021/04/24 04:23:44;;;;;;;24.23;11.20;;;1.90;99.90;;;;;;4763834;29;20265;-80
2021/04/24 04:26:10;;;;;;;24.50;10.23;;;2.00;99.90;;;;;;4745847;30;20198;-80
2021/04/24 04:28:36;;;;;;;17.07;8.97;;;2.10;99.90;;;;;;4768478;30;20201;-79
2021/04/24 04:31:02;;;;;;;15.53;8.77;;;2.10;99.90;;;;;;4782041;29;20194;-80
2021/04/24 04:33:27;;;;;;;18.03;8.87;;;2.20;99.90;;;;;;4767362;30;20190;-80
2021/04/24 04:35:54;;;;;;;19.47;8.90;;;2.30;99.90;;;;;;4781551;29;20208;-80
2021/04/24 04:38:19;;;;;;;22.77;9.23;;;2.40;99.90;;;;;;4768226;30;20285;-81
2021/04/24 04:40:46;;;;;;;18.07;8.97;;;2.50;99.90;;;;;;4767599;30;20607;-80
2021/04/24 04:43:13;;;;;;;15.63;8.10;;;2.60;99.90;;;;;;4768242;30;20275;-81
2021/04/24 04:45:38;;;;;;;19.63;9.33;;;2.80;99.90;;;;;;4767550;30;20224;-80
2021/04/24 04:48:05;;;;;;;12.83;7.30;;;2.90;99.90;;;;;;4771005;30;20276;-80
2021/04/24 04:50:33;;;;;;;16.63;8.50;;;2.90;99.90;;;;;;4770412;30;20201;-84
2021/04/24 04:52:59;;;;;;;15.53;7.83;;;3.00;99.90;;;;;;4771924;30;20695;-81
2021/04/24 04:55:26;;;;;;;17.23;7.93;;;3.00;99.90;;;;;;4770182;29;20270;-81
2021/04/24 04:57:53;;;;;;;14.63;8.03;;;3.10;99.90;;;;;;4770572;30;20723;-81
2021/04/24 05:00:21;;;;;;;12.20;7.40;;;3.20;99.90;;;;;;4768494;30;20221;-81
2021/04/24 05:02:47;;;;;;;17.27;8.03;;;3.30;99.90;;;;;;4765513;30;20660;-81
2021/04/24 05:05:14;;;;;;;16.63;7.70;;;3.40;99.90;;;;;;4759114;30;20228;-81
2021/04/24 05:07:41;;;;;;;13.97;8.03;;;3.50;99.90;;;;;;4764063;30;20202;-82
2021/04/24 05:10:08;;;;;;;18.40;8.80;;;3.60;99.90;;;;;;4769458;30;20233;-80
2021/04/24 05:12:34;;;;;;;14.00;7.10;;;3.70;99.90;;;;;;4767350;30;20228;-82
2021/04/24 05:15:00;;;;;;;13.60;7.27;;;3.80;99.90;;;;;;4768475;30;20229;-81
2021/04/24 05:17:25;;;;;;;13.97;6.80;;;3.90;99.90;;;;;;4768815;30;20205;-83
2021/04/24 05:19:51;;;;;;;13.73;7.30;;;4.00;99.90;;;;;;4765663;30;20195;-82
2021/04/24 05:22:17;;;;;;;12.53;6.97;;;4.10;99.90;;;;;;4746030;30;20575;-82
2021/04/24 05:24:43;;;;;;;12.27;6.30;;;4.10;99.90;;;;;;4766404;30;20260;-82
2021/04/24 05:27:09;;;;;;;13.47;7.07;;;4.20;99.90;;;;;;4755182;30;20240;-83
2021/04/24 05:29:35;;;;;;;11.80;6.77;;;4.30;99.90;;;;;;4757051;30;20284;-82
2021/04/24 05:32:03;;;;;;;15.07;6.63;;;4.40;99.90;;;;;;4752853;30;20192;-80
2021/04/24 05:34:30;;;;;;;14.07;5.30;;;4.50;99.90;;;;;;4758274;30;20301;-80
2021/04/24 05:36:56;;;;;;;12.73;6.30;;;4.50;99.90;;;;;;4764683;30;20204;-80
2021/04/24 05:39:22;;;;;;;19.00;7.03;;;4.70;99.90;;;;;;4769928;30;20220;-81
2021/04/24 05:41:49;;;;;;;9.50;5.93;;;4.80;99.90;;;;;;4766751;30;20224;-83
2021/04/24 05:44:14;;;;;;;12.10;6.70;;;4.80;99.90;;;;;;4769761;30;20224;-83
2021/04/24 05:46:40;;;;;;;10.93;6.57;;;4.90;99.90;;;;;;4766507;30;20323;-84
2021/04/24 05:49:06;;;;;;;15.43;7.60;;;4.90;99.90;;;;;;4779930;30;20190;-83
2021/04/24 05:51:32;;;;;;;15.47;6.93;;;5.00;99.90;;;;;;4769818;30;20258;-84
2021/04/24 05:53:58;;;;;;;16.87;6.50;;;;;;;;;;4771715;30;20208;-83
2021/04/24 05:56:24;;;;;;;16.80;6.13;;;5.70;99.90;;;;;;4769641;30;20417;-83
2021/04/24 05:58:51;;;;;;;13.67;7.73;;;5.30;99.90;;;;;;4736354;30;20213;-84
2021/04/24 06:01:17;;;;;;;10.20;6.27;;;;;;;;;;4761426;30;20194;-83
2021/04/24 06:03:43;;;;;;;10.47;6.17;;;;;;;;;;4766159;30;20201;-84
2021/04/24 06:06:09;;;;;;;11.20;5.87;;;;;;;;;;4760838;30;20205;-85
2021/04/24 06:08:35;;;;;;;11.40;6.77;;;;;;;;;;4778766;30;20262;-83
2021/04/24 06:11:01;;;;;;;8.40;5.77;;;;;;;;;;4754613;30;20572;-85
2021/04/24 06:13:27;;;;;;;6.10;3.57;;;;;;;;;;4784407;29;20201;-82
2021/04/24 06:15:54;;;;;;;13.40;6.55;;;5.70;99.90;;;;;;4770152;30;20435;-82
2021/04/24 06:18:21;;;;;;;8.90;5.63;;;;;;;;;;4770444;30;20584;-81
2021/04/24 06:20:47;;;;;;;9.40;5.00;;;;;;;;;;4770504;30;20592;-82
2021/04/24 06:23:13;;;;;;;9.93;5.40;;;;;;;;;;4765741;30;20221;-82
2021/04/24 06:25:39;;;;;;;11.47;5.87;;;;;;;;;;4770525;30;20225;-81
2021/04/24 06:28:05;;;;;;;11.53;6.10;;;;;;;;;;4770554;30;20191;-84
2021/04/24 06:30:31;;;;;;;10.83;5.57;;;;;;;;;;4780205;29;20193;-83
2021/04/24 06:32:58;;;;;;;11.90;5.60;;;;;;;;;;4774049;29;20188;-82
2021/04/24 06:35:27;;;;;;;8.90;5.47;;;;;;;;;;4769683;30;20249;-81
2021/04/24 06:37:57;;;;;;;11.20;4.97;;;;;;;;;;4754782;30;20664;-82
2021/04/24 06:40:23;;;;;;;10.63;4.87;;;;;;;;;;4770389;30;20189;-82
2021/04/24 06:42:49;;;;;;;7.47;4.43;;;;;;;;;;4755907;30;20199;-84
2021/04/24 06:45:15;;;;;;;8.70;3.90;;;6.50;99.90;;;;;;4758752;30;20215;-82
2021/04/24 06:47:41;;;;;;;7.40;5.07;;;6.50;90.40;;;;;;4766333;30;20242;-83
2021/04/24 06:50:10;;;;;;;9.27;4.60;;;6.40;90.00;;;;;;4766631;30;20692;-83
2021/04/24 06:52:36;;;;;;;6.80;4.03;;;;;;;;;;4794535;29;20190;-84
2021/04/24 06:55:03;;;;;;;5.13;3.60;;;6.50;89.90;;;;;;4778192;30;20202;-83
2021/04/24 06:57:29;;;;;;;7.00;3.30;;;;;;;;;;4763147;30;20198;-85
2021/04/24 06:59:55;;;;;;;10.00;4.17;;;;;;;;;;4768180;30;20682;-85
2021/04/24 07:02:22;;;;;;;8.37;4.13;;;;;;;;;;4769877;30;20276;-85
2021/04/24 07:04:48;;;;;;;9.47;4.00;;;;;;;;;;4783184;29;20236;-85
2021/04/24 07:07:15;;;;;;;13.30;3.87;;;;;;;;;;4754031;30;20253;-84
2021/04/24 07:09:42;;;;;;;7.33;3.80;;;;;;;;;;4760835;30;20265;-85
2021/04/24 07:12:08;;;;;;;5.90;3.03;;;6.40;93.60;;;;;;4769821;30;20198;-85
2021/04/24 07:14:34;;;;;;;6.90;4.00;;;6.60;82.30;;;;;;4749197;30;20206;-85
2021/04/24 07:17:00;;;;;;;4.57;3.13;;;;;;;;;;4759559;30;20217;-85
2021/04/24 07:19:27;;;;;;;8.83;4.00;;;;;;;;;;4768299;30;20276;-84
2021/04/24 07:21:53;;;;;;;6.03;3.83;;;;;;;;;;4769742;30;20251;-84
2021/04/24 07:24:19;;;;;;;9.50;3.70;;;;;;;;;;4769654;30;20225;-84
2021/04/24 07:26:45;;;;;;;6.13;3.37;;;;;;;;;;4763914;30;20206;-84
2021/04/24 07:29:11;;;;;;;6.03;3.00;;;;;;;;;;4769296;30;20193;-84
2021/04/24 07:31:37;;;;;;;9.70;3.17;;;;;;;;;;4762773;29;20194;-84
2021/04/24 07:34:03;;;;;;;4.93;2.77;;;;;;;;;;4762322;30;20198;-85
2021/04/24 07:36:29;;;;;;;4.27;2.97;;;;;;;;;;4763897;29;20198;-85
2021/04/24 07:38:56;;;;;;;6.53;3.33;;;7.40;68.20;;;;;;4764862;30;20678;-85
2021/04/24 07:41:23;;;;;;;7.37;3.23;;;7.40;67.50;;;;;;4764149;30;20204;-85
2021/04/24 07:43:49;;;;;;;8.60;2.90;;;;;;;;;;4747260;30;20209;-85
2021/04/24 07:46:16;;;;;;;6.80;3.20;;;;;;;;;;4749299;30;20215;-84
2021/04/24 07:48:42;;;;;;;3.73;2.60;;;;;;;;;;4768307;30;20265;-84
2021/04/24 07:51:08;;;;;;;7.23;2.90;;;;;;;;;;4772621;29;20661;-85
2021/04/24 07:53:34;;;;;;;5.37;3.27;;;;;;;;;;4760971;30;20205;-85
2021/04/24 07:56:00;;;;;;;7.80;2.37;;;;;;;;;;4767839;30;20247;-86
2021/04/24 07:58:26;;;;;;;3.03;1.77;;;;;;;;;;4767408;30;20194;-86
2021/04/24 08:00:52;;;;;;;4.60;2.13;;;;;;;;;;4765732;29;20657;-85
2021/04/24 08:03:18;;;;;;;7.33;3.03;;;;;;;;;;4766020;30;20240;-87
2021/04/24 08:05:44;;;;;;;4.50;2.10;;;;;;;;;;4766078;30;20261;-84
2021/04/24 08:08:10;;;;;;;4.70;2.50;;;;;;;;;;4767767;30;20718;-85
2021/04/24 08:10:36;;;;;;;5.53;1.93;;;;;;;;;;4766867;30;20241;-84
2021/04/24 08:13:03;;;;;;;6.23;2.10;;;;;;;;;;4765761;29;20219;-85
2021/04/24 08:15:29;;;;;;;7.20;2.43;;;;;;;;;;4767327;30;20193;-85
2021/04/24 08:17:55;;;;;;;5.67;2.33;;;;;;;;;;4767113;30;20217;-83
2021/04/24 08:20:22;;;;;;;2.90;2.20;;;;;;;;;;4766999;30;20198;-86
2021/04/24 08:22:48;;;;;;;4.50;1.90;;;;;;;;;;4767800;30;20283;-86
2021/04/24 08:25:14;;;;;;;4.60;2.20;;;7.90;86.50;;;;;;4768475;30;20221;-83
2021/04/24 08:27:40;;;;;;;8.13;2.40;;;;;;;;;;4767303;30;20319;-87
2021/04/24 08:30:09;;;;;;;3.13;2.37;;;8.30;78.50;;;;;;4781648;29;20812;-86
2021/04/24 08:32:35;;;;;;;1.83;1.40;;;8.30;55.60;;;;;;4769061;30;20722;-86
2021/04/24 08:35:01;;;;;;;6.10;2.03;;;;;;;;;;4768224;30;20272;-87
2021/04/24 08:37:27;;;;;;;4.03;1.90;;;;;;;;;;4767619;30;20205;-86
2021/04/24 08:39:54;;;;;;;4.13;2.07;;;;;;;;;;4768658;30;20280;-86
2021/04/24 08:42:20;;;;;;;3.50;1.87;;;8.30;56.60;;;;;;4762487;30;20186;-85
2021/04/24 08:44:50;;;;;;;4.57;1.90;;;8.30;57.80;;;;;;4769679;30;21032;-85
2021/04/24 08:47:20;;;;;;;2.73;1.80;;;8.50;55.30;;;;;;4768032;29;20194;-85
2021/04/24 08:49:46;;;;;;;4.17;2.40;;;;;;;;;;4768665;30;20344;-85
2021/04/24 08:52:12;;;;;;;4.50;1.70;;;8.50;53.70;;;;;;4768308;30;20218;-85
2021/04/24 08:54:38;;;;;;;3.70;1.43;;;;;;;;;;4781550;29;20205;-85
2021/04/24 08:57:05;;;;;;;5.77;2.00;;;;;;;;;;4767028;30;20194;-84
2021/04/24 08:59:31;;;;;;;4.77;1.80;;;8.80;52.90;;;;;;4767161;30;20265;-84
2021/04/24 09:01:57;;;;;;;3.53;1.70;;;;;;;;;;4756410;30;20206;-85
2021/04/24 09:04:23;;;;;;;3.20;1.80;;;;;;;;;;4763943;29;20218;-84
2021/04/24 09:06:49;;;;;;;3.43;1.73;;;;;;;;;;4763843;29;20202;-83
2021/04/24 09:09:16;;;;;;;4.10;1.90;;;;;;;;;;4751616;30;20230;-85
2021/04/24 09:11:47;;;;;;;8.17;1.73;;;9.00;74.20;;;;;;4765671;29;20282;-85
2021/04/24 09:14:15;;;;;;;4.93;2.23;;;9.40;52.50;;;;;;4766437;29;20213;-86
2021/04/24 09:16:42;;;;;;;7.33;1.90;;;9.50;51.10;;;;;;4763819;29;20191;-84
2021/04/24 09:19:34;;;;;;;3.80;1.70;;;9.60;49.10;;;;;;4750422;30;20206;-84
2021/04/24 09:22:22;;;;;;;2.37;1.50;;;9.30;48.20;;;;;;4763862;29;20531;-84
2021/04/24 09:24:56;;;;;;;3.50;1.67;;;9.20;48.10;;;;;;4749996;30;20226;-84
2021/04/24 09:27:44;;;;;;;3.70;1.60;;;9.20;67.70;;;;;;4756758;30;20288;-83
2021/04/24 09:30:30;;;;;;;3.07;1.60;;;9.20;67.00;;;;;;4750282;30;20269;-84
2021/04/24 09:33:08;;;;;;;2.73;1.40;;;9.60;45.20;;;;;;4750038;30;20228;-83
2021/04/24 09:35:54;;;;;;;2.60;1.20;;;9.50;65.80;;;;;;4753691;30;20197;-83
2021/04/24 09:38:23;;;;;;;1.90;1.47;;;9.10;45.20;;;;;;4767179;29;20566;-83
2021/04/24 09:41:17;;;;;;;3.53;1.10;;;9.20;45.60;;;;;;4754606;30;20189;-85
2021/04/24 09:44:00;;;;;;;2.57;1.60;;;9.30;46.00;;;;;;4778236;29;20234;-86
2021/04/24 09:46:35;;;;;;;1.13;1.03;;;9.70;43.40;;;;;;4753347;30;20298;-84
2021/04/24 09:49:27;;;;;;;4.83;1.47;;;9.90;53.80;;;;;;4754309;30;20694;-83
2021/04/24 09:52:00;;;;;;;1.40;1.03;;;9.80;60.50;;;;;;4765001;29;20260;-84
2021/04/24 09:54:35;;;;;;;3.80;1.30;;;9.60;59.60;;;;;;4758342;30;20189;-83
2021/04/24 09:57:10;;;;;;;4.03;1.50;;;9.90;42.70;;;;;;4769652;30;20194;-84
2021/04/24 09:59:56;;;;;;;2.13;1.43;;;9.50;48.80;;;;;;4784552;29;20196;-85
2021/04/24 10:02:39;;;;;;;1.27;0.83;;;9.60;41.30;;;;;;4770142;29;20186;-83
2021/04/24 10:05:16;;;;;;;2.83;1.20;;;9.60;42.90;;;;;;4752856;30;20238;-83
2021/04/24 10:07:53;;;;;;;1.77;1.20;;;9.80;41.50;;;;;;4761100;30;20578;-84
2021/04/24 10:10:31;;;;;;;1.87;1.23;;;9.80;40.00;;;;;;4760099;30;20233;-84
2021/04/24 10:13:06;;;;;;;1.60;1.37;;;9.70;40.80;;;;;;4764747;30;20656;-85
2021/04/24 10:15:39;;;;;;;2.43;1.70;;;9.30;53.90;;;;;;4781264;29;20663;-86
2021/04/24 10:18:07;;;;;;;6.20;1.87;;;9.40;43.70;;;;;;4770619;30;20191;-85
2021/04/24 10:20:34;;;;;;;2.17;1.33;;;9.50;42.90;;;;;;4770731;30;20197;-85
2021/04/24 10:23:07;;;;;;;1.57;1.10;;;9.70;57.70;;;;;;4766826;29;20199;-85
2021/04/24 10:25:33;;;;;;;3.57;1.43;;;;;;;;;;4770500;30;20225;-85
2021/04/24 10:27:59;;;;;;;4.57;1.57;;;;;;;;;;4770510;30;20217;-85
2021/04/24 10:30:25;;;;;;;4.70;1.60;;;9.60;40.10;;;;;;4770394;30;20202;-86
2021/04/24 10:32:55;;;;;;;3.37;1.30;;;9.40;41.00;;;;;;4784141;29;20187;-85
2021/04/24 10:35:21;;;;;;;1.50;0.90;;;;;;;;;;4766906;30;20201;-86
2021/04/24 10:37:49;;;;;;;2.33;1.30;;;9.50;42.40;;;;;;4765132;30;20197;-86
2021/04/24 10:40:15;;;;;;;3.17;1.30;;;;;;;;;;4772465;30;20189;-85
2021/04/24 10:42:49;;;;;;;4.30;1.27;;;9.50;41.50;;;;;;4764643;30;20213;-87
2021/04/24 10:45:29;;;;;;;2.07;1.33;;;9.60;41.40;;;;;;4777973;29;20214;-86
2021/04/24 10:47:56;;;;;;;1.87;1.23;;;9.50;41.00;;;;;;4770495;30;20198;-86
2021/04/24 10:50:38;;;;;;;3.30;1.50;;;9.40;39.80;;;;;;4772176;30;20190;-85
2021/04/24 10:53:24;;;;;;;1.60;1.37;;;9.30;42.10;;;;;;4761854;29;20801;-86
2021/04/24 10:55:52;;;;;;;4.03;1.30;;;9.50;41.70;;;;;;4763894;30;20194;-84
2021/04/24 10:58:24;;;;;;;3.50;1.30;;;9.70;56.00;;;;;;4781091;29;20272;-84
2021/04/24 11:00:58;;;;;;;2.77;1.27;;;9.60;43.00;;;;;;4764838;30;20191;-86
2021/04/24 11:03:40;;;;;;;2.13;1.60;;;9.50;43.10;;;;;;4759703;30;20688;-86
2021/04/24 11:06:16;;;;;;;4.40;1.50;;;9.20;55.40;;;;;;4758186;30;20662;-84
2021/04/24 11:08:43;;;;;;;2.20;1.30;;;9.60;43.10;;;;;;4766921;30;20275;-85
2021/04/24 11:11:15;;;;;;;6.87;2.23;;;9.20;43.60;;;;;;4774021;29;20248;-85
2021/04/24 11:13:52;;;;;;;1.63;1.47;;;9.30;57.10;;;;;;4756983;30;20230;-85
2021/04/24 11:16:18;;;;;;;3.07;1.57;;;9.20;46.30;;;;;;4762307;30;20278;-84
2021/04/24 11:18:48;;;;;;;8.40;1.83;;;9.30;47.30;;;;;;4757054;30;20209;-85
2021/04/24 11:21:30;;;;;;;4.50;2.37;;;9.30;47.90;;;;;;4761175;30;20193;-88
2021/04/24 11:24:15;;;;;;;4.57;1.90;;;8.80;52.80;;;;;;4765648;30;20595;-85
2021/04/24 11:26:41;;;;;;;3.00;1.80;;;;;;;;;;4771961;29;20214;-86
2021/04/24 11:29:22;;;;;;;5.63;2.33;;;8.90;48.20;;;;;;4759751;30;20667;-85
2021/04/24 11:31:53;;;;;;;4.40;2.03;;;8.90;58.10;;;;;;4766556;30;20198;-85
2021/04/24 11:34:36;;;;;;;8.20;2.30;;;8.90;58.70;;;;;;4765148;30;20658;-85
2021/04/24 11:37:18;;;;;;;7.00;2.40;;;8.90;64.20;;;;;;4776295;29;20190;-85
2021/04/24 11:40:05;;;;;;;4.77;2.90;;;8.80;56.70;;;;;;4763288;30;20202;-85
2021/04/24 11:42:33;;;;;;;5.83;2.50;;;8.10;56.60;;;;;;4770826;29;20543;-84
2021/04/24 11:44:59;;;;;;;7.20;2.43;;;;;;;;;;4762035;30;20260;-84
2021/04/24 11:47:43;;;;;;;6.90;2.73;;;8.00;72.10;;;;;;4757740;30;20218;-85
2021/04/24 11:50:10;;;;;;;6.20;2.80;;;8.10;62.40;;;;;;4763266;30;20664;-84
2021/04/24 11:52:36;;;;;;;6.20;2.33;;;;;;;;;;4755915;30;20225;-86
2021/04/24 11:55:03;;;;;;;6.17;2.63;;;;;;;;;;4765295;30;20266;-86
2021/04/24 11:57:29;;;;;;;8.63;3.03;;;;;;;;;;4763575;30;20689;-85
2021/04/24 11:59:55;;;;;;;8.63;3.10;;;;;;;;;;4764292;30;20210;-85
2021/04/24 12:02:27;;;;;;;11.33;3.53;;;7.30;89.80;;;;;;4755936;30;20209;-83
2021/04/24 12:05:19;;;;;;;4.03;2.70;;;7.80;90.00;;;;;;4758062;30;20237;-82
2021/04/24 12:07:48;;;;;;;5.63;2.97;;;;;;;;;;4797020;29;20212;-86
2021/04/24 12:10:14;;;;;;;4.63;2.80;;;;;;;;;;4788286;30;20214;-87
2021/04/24 12:12:48;;;;;;;7.50;4.27;;;7.90;94.00;;;;;;4772116;30;20281;-85
2021/04/24 12:15:22;;;;;;;7.97;3.83;;;7.80;99.90;;;;;;4767578;30;20193;-83
2021/04/24 12:17:48;;;;;;;8.13;4.10;;;;;;;;;;4781808;29;20664;-85
2021/04/24 12:20:44;;;;;;;7.00;3.83;;;7.60;91.10;;;;;;4764964;30;20251;-83
2021/04/24 12:23:11;;;;;;;4.77;2.90;;;7.40;89.70;;;;;;4761956;30;20213;-83
2021/04/24 12:25:39;;;;;;;7.67;3.90;;;7.70;90.80;;;;;;4767924;30;20225;-85
2021/04/24 12:28:07;;;;;;;8.10;4.07;;;7.90;91.40;;;;;;4755430;30;20198;-83
2021/04/24 12:30:35;;;;;;;6.17;3.27;;;7.90;88.70;;;;;;4755637;30;20552;-82
2021/04/24 12:33:04;;;;;;;6.80;3.80;;;8.00;99.20;;;;;;4757090;30;20193;-84
2021/04/24 12:35:41;;;;;;;8.10;3.33;;;7.70;85.10;;;;;;4762447;30;20204;-85
2021/04/24 12:38:15;;;;;;;8.50;3.50;;;7.70;85.80;;;;;;4755324;30;20212;-85
2021/04/24 12:40:42;;;;;;;7.33;2.90;;;;;;;;;;4777069;29;20185;-84
2021/04/24 12:43:09;;;;;;;7.37;3.47;;;7.70;89.50;;;;;;4764818;30;20198;-85
2021/04/24 12:45:37;;;;;;;3.87;2.63;;;7.80;89.50;;;;;;4781900;29;20228;-83
2021/04/24 12:48:05;;;;;;;6.13;3.17;;;7.80;91.30;;;;;;4762201;30;20671;-85
2021/04/24 12:50:39;;;;;;;5.03;3.20;;;7.80;93.50;;;;;;4767184;30;20189;-85
2021/04/24 12:53:07;;;;;;;7.53;3.37;;;7.60;94.10;;;;;;4782288;29;20261;-83
2021/04/24 12:55:38;;;;;;;8.83;3.47;;;7.60;99.90;;;;;;4781801;29;20664;-84
2021/04/24 12:58:07;;;;;;;6.37;3.40;;;7.40;94.30;;;;;;4782208;29;20349;-84
2021/04/24 13:00:40;;;;;;;8.60;3.67;;;7.60;91.70;;;;;;4767718;30;20213;-86
2021/04/24 13:03:28;;;;;;;17.03;5.70;;;7.60;93.60;;;;;;4764207;29;20195;-85
2021/04/24 13:05:58;;;;;;;18.17;5.67;;;7.50;94.00;;;;;;4748865;30;20584;-84
2021/04/24 13:08:24;;;;;;;18.80;5.53;;;;;;;;;;4752242;30;20325;-85
2021/04/24 13:11:12;;;;;;;11.00;4.13;;;7.90;99.20;;;;;;4765262;30;20253;-85
2021/04/24 13:13:39;;;;;;;8.50;3.53;;;8.10;83.70;;;;;;4754175;30;20187;-85
2021/04/24 13:16:07;;;;;;;7.20;3.97;;;8.20;83.60;;;;;;4767300;29;20293;-84
2021/04/24 13:18:45;;;;;;;7.07;3.30;;;8.40;82.90;;;;;;4754076;30;20210;-84
2021/04/24 13:21:25;;;;;;;7.63;3.20;;;8.80;96.20;;;;;;4753829;30;20198;-84